Weather History for KDMW - May, 2013

Change the Weather History Date:

Saturday, May 25, 2013

  Actual Average (KTHV) Record (KTHV)
Temperature  
Mean Temperature 54 °F -  
Max Temperature 66 °F 72 °F 87 °F (2007)
Min Temperature 42 °F 55 °F 42 °F (2008)
Degree Days  
Heating Degree Days 11    
Growing Degree Days 4 (Base 50)    
Moisture  
Dew Point 33 °F    
Average Humidity 49    
Maximum Humidity 76    
Minimum Humidity 24    
Precipitation  
Precipitation 0.00 in - - ()
Sea Level Pressure  
Sea Level Pressure 30.12 in    
Wind  
Wind Speed 11 mph (WNW)    
Max Wind Speed 18 mph    
Max Gust Speed 29 mph    
Visibility 10 miles    
Events      
Averages and records for this station are not official NWS values.
T = Trace of Precipitation, MM = Missing Value Source: NWS Daily Summary

Daily Weather History Graph

Daily Weather History Graph

Search for Another Location

Airport or City:

Trip Planner

Search our weather history database for the weather conditions in past years. The results will help you decide how hot, cold, wet, or windy it might be!

Date:

Astronomy

May. 25, 2013 Rise Set
Actual Time 5:45 AM EDT 8:24 PM EDT
Civil Twilight 5:14 AM EDT 8:55 PM EDT
Nautical Twilight 4:35 AM EDT 9:35 PM EDT
Astronomical Twilight 3:51 AM EDT 10:19 PM EDT
Moon 9:10 PM EDT (5/25) 6:10 AM EDT (5/25)
Length of Visible Light 15h 41m
Length of Day
14h 38m
Full, 100% of the Moon is Illuminated
May 25
Full
May 31
Last Quarter
Jun 8
New
Jun 16
First Quarter
Jun 23
Full

Hourly Weather History & Observations

Time (EDT) Temp. Windchill Dew Point Humidity Pressure Visibility Wind Dir Wind Speed Gust Speed Precip Events Conditions
12:05 AM 46.4 °F 41.1 °F 37.4 °F 71% 30.14 in 10.0 mi NW 11.5 mph 17.3 mph N/A   Scattered Clouds
12:25 AM 46.4 °F 41.9 °F 37.4 °F 71% 30.14 in 10.0 mi WNW 9.2 mph - N/A   Scattered Clouds
12:45 AM 46.4 °F 42.4 °F 37.4 °F 71% 30.13 in 10.0 mi WNW 8.1 mph - N/A   Clear
1:05 AM 46.4 °F 41.5 °F 37.4 °F 71% 30.13 in 10.0 mi WNW 10.4 mph 16.1 mph N/A   Clear
1:25 AM 46.4 °F 41.9 °F 37.4 °F 71% 30.13 in 10.0 mi WNW 9.2 mph 16.1 mph N/A   Scattered Clouds
1:45 AM 44.6 °F 40.7 °F 32.0 °F 61% 30.12 in 10.0 mi WNW 6.9 mph - N/A   Scattered Clouds
2:05 AM 44.6 °F 40.2 °F 33.8 °F 66% 30.12 in 10.0 mi WNW 8.1 mph - N/A   Clear
2:25 AM 44.6 °F 40.2 °F 33.8 °F 66% 30.12 in 10.0 mi WNW 8.1 mph - N/A   Clear
2:45 AM 44.6 °F 40.2 °F 33.8 °F 66% 30.12 in 10.0 mi WNW 8.1 mph - N/A   Scattered Clouds
3:05 AM 44.6 °F 39.2 °F 33.8 °F 66% 30.12 in 10.0 mi WNW 10.4 mph - N/A   Scattered Clouds
3:25 AM 44.6 °F 38.1 °F 33.8 °F 66% 30.12 in 10.0 mi WNW 13.8 mph 18.4 mph N/A   Clear
3:45 AM 44.6 °F 38.8 °F 33.8 °F 66% 30.12 in 10.0 mi WNW 11.5 mph 17.3 mph N/A   Clear
4:05 AM 44.6 °F 39.2 °F 33.8 °F 66% 30.13 in 10.0 mi WNW 10.4 mph 17.3 mph N/A   Clear
4:25 AM 42.8 °F 37.5 °F 35.6 °F 76% 30.13 in 10.0 mi WNW 9.2 mph - N/A   Clear
4:45 AM 42.8 °F 37.0 °F 35.6 °F 76% 30.13 in 10.0 mi WNW 10.4 mph 20.7 mph N/A   Clear
5:05 AM 42.8 °F 35.8 °F 35.6 °F 76% 30.13 in 10.0 mi WNW 13.8 mph 21.9 mph N/A   Clear
5:25 AM 42.8 °F 37.0 °F 35.6 °F 76% 30.13 in 10.0 mi WNW 10.4 mph - N/A   Clear
5:45 AM 42.8 °F 35.8 °F 35.6 °F 76% 30.13 in 10.0 mi WNW 13.8 mph 18.4 mph N/A   Clear
6:05 AM 42.8 °F 35.8 °F 35.6 °F 76% 30.14 in 10.0 mi WNW 13.8 mph 19.6 mph N/A   Clear
6:25 AM 42.8 °F 36.2 °F 35.6 °F 76% 30.13 in 10.0 mi West 12.7 mph - N/A   Clear
6:45 AM 42.8 °F 36.2 °F 35.6 °F 76% 30.14 in 10.0 mi WNW 12.7 mph 19.6 mph N/A   Clear
7:05 AM 44.6 °F 38.4 °F 35.6 °F 71% 30.14 in 10.0 mi WNW 12.7 mph 19.6 mph N/A   Clear
7:25 AM 44.6 °F 37.8 °F 35.6 °F 71% 30.15 in 10.0 mi WNW 15.0 mph 20.7 mph N/A   Clear
7:45 AM 44.6 °F 38.4 °F 35.6 °F 71% 30.15 in 10.0 mi WNW 12.7 mph 23.0 mph N/A   Clear
8:05 AM 46.4 °F 39.5 °F 37.4 °F 71% 30.15 in 10.0 mi WNW 17.3 mph 21.9 mph N/A   Clear
8:25 AM 46.4 °F 40.1 °F 35.6 °F 66% 30.15 in 10.0 mi WNW 15.0 mph 25.3 mph N/A   Clear
8:45 AM 48.2 °F - 37.4 °F 66% 30.16 in 10.0 mi WNW 12.7 mph 26.5 mph N/A   Clear
9:05 AM 48.2 °F - 35.6 °F 62% 30.16 in 10.0 mi NW 15.0 mph 23.0 mph N/A   Clear
9:25 AM 51.8 °F - 35.6 °F 54% 30.16 in 10.0 mi NW 17.3 mph 25.3 mph N/A   Clear
9:45 AM 51.8 °F - 33.8 °F 50% 30.15 in 10.0 mi NW 12.7 mph 25.3 mph N/A   Scattered Clouds
10:05 AM 51.8 °F - 35.6 °F 54% 30.14 in 10.0 mi NNW 13.8 mph 21.9 mph N/A   Clear
10:25 AM 53.6 °F - 33.8 °F 47% 30.14 in 10.0 mi WNW 16.1 mph 26.5 mph N/A   Scattered Clouds
10:45 AM 53.6 °F - 33.8 °F 47% 30.15 in 10.0 mi NNW 15.0 mph 25.3 mph N/A   Clear
11:05 AM 55.4 °F - 33.8 °F 44% 30.14 in 10.0 mi NW 16.1 mph 21.9 mph N/A   Clear
11:25 AM 55.4 °F - 33.8 °F 44% 30.14 in 10.0 mi NW 13.8 mph 21.9 mph N/A   Clear
11:45 AM 55.4 °F - 33.8 °F 44% 30.14 in 10.0 mi NW 13.8 mph 19.6 mph N/A   Scattered Clouds
12:05 PM 57.2 °F - 33.8 °F 41% 30.13 in 10.0 mi WNW 16.1 mph 25.3 mph N/A   Scattered Clouds
12:25 PM 57.2 °F - 35.6 °F 44% 30.13 in 10.0 mi NW 9.2 mph 19.6 mph N/A   Scattered Clouds
12:45 PM 57.2 °F - 33.8 °F 41% 30.13 in 10.0 mi NNW 12.7 mph 20.7 mph N/A   Scattered Clouds
1:05 PM 59.0 °F - 33.8 °F 39% 30.12 in 10.0 mi NW 9.2 mph 18.4 mph N/A   Scattered Clouds
1:25 PM 59.0 °F - 32.0 °F 36% 30.11 in 10.0 mi NNW 9.2 mph 21.9 mph N/A   Scattered Clouds
1:45 PM 60.8 °F - 33.8 °F 36% 30.11 in 10.0 mi NW 15.0 mph 27.6 mph N/A   Scattered Clouds
2:05 PM 60.8 °F - 33.8 °F 36% 30.11 in 10.0 mi NW 13.8 mph 18.4 mph N/A   Scattered Clouds
2:25 PM 62.6 °F - 33.8 °F 34% 30.10 in 10.0 mi NNW 12.7 mph 24.2 mph N/A   Scattered Clouds
2:45 PM 62.6 °F - 32.0 °F 32% 30.10 in 10.0 mi NW 15.0 mph 28.8 mph N/A   Clear
3:05 PM 62.6 °F - 33.8 °F 34% 30.10 in 10.0 mi NW 13.8 mph 23.0 mph N/A   Scattered Clouds
3:25 PM 62.6 °F - 30.2 °F 30% 30.10 in 10.0 mi WNW 18.4 mph 25.3 mph N/A   Mostly Cloudy
3:50 PM 64.4 °F - 30.2 °F 28% 30.09 in 10.0 mi NW 12.7 mph 24.2 mph N/A   Scattered Clouds
4:10 PM 64.4 °F - 33.8 °F 32% 30.09 in 10.0 mi WNW 15.0 mph 25.3 mph N/A   Scattered Clouds
4:30 PM 64.4 °F - 30.2 °F 28% 30.08 in 10.0 mi WNW 17.3 mph 23.0 mph N/A   Scattered Clouds
4:50 PM 64.4 °F - 28.4 °F 26% 30.08 in 10.0 mi WNW 18.4 mph 24.2 mph N/A   Clear
5:10 PM 64.4 °F - 30.2 °F 28% 30.08 in 10.0 mi NW 16.1 mph 20.7 mph N/A   Clear
5:30 PM 64.4 °F - 32.0 °F 30% 30.08 in 10.0 mi WNW 16.1 mph 21.9 mph N/A   Scattered Clouds
5:50 PM 66.2 °F - 30.2 °F 26% 30.08 in 10.0 mi NW 17.3 mph 24.2 mph N/A   Scattered Clouds
6:10 PM 64.4 °F - 28.4 °F 26% 30.08 in 10.0 mi NW 11.5 mph 26.5 mph N/A   Scattered Clouds
6:30 PM 64.4 °F - 30.2 °F 28% 30.08 in 10.0 mi WNW 13.8 mph 21.9 mph N/A   Scattered Clouds
6:50 PM 64.4 °F - 26.6 °F 24% 30.08 in 10.0 mi NW 11.5 mph 19.6 mph N/A   Clear
7:10 PM 64.4 °F - 30.2 °F 28% 30.08 in 10.0 mi WNW 12.7 mph 20.7 mph N/A   Clear
7:30 PM 64.4 °F - 30.2 °F 28% 30.09 in 10.0 mi WNW 9.2 mph 19.6 mph N/A   Clear
7:50 PM 62.6 °F - 30.2 °F 30% 30.10 in 10.0 mi WNW 9.2 mph - N/A   Clear
8:10 PM 62.6 °F - 30.2 °F 30% 30.10 in 10.0 mi WNW 9.2 mph 16.1 mph N/A   Clear
8:30 PM 60.8 °F - 30.2 °F 31% 30.10 in 10.0 mi WNW 8.1 mph - N/A   Clear
8:50 PM 57.2 °F - 32.0 °F 38% 30.10 in 10.0 mi WNW 8.1 mph - N/A   Clear
9:10 PM 57.2 °F - 30.2 °F 36% 30.11 in 10.0 mi NW 6.9 mph - N/A   Clear
9:30 PM 57.2 °F - 26.6 °F 31% 30.11 in 10.0 mi NW 10.4 mph - N/A   Clear
9:50 PM 57.2 °F - 26.6 °F 31% 30.12 in 10.0 mi WNW 8.1 mph - N/A   Clear
10:10 PM 57.2 °F - 26.6 °F 31% 30.13 in 10.0 mi WNW 6.9 mph - N/A   Clear
10:30 PM 55.4 °F - 28.4 °F 36% 30.14 in 10.0 mi WNW 5.8 mph - N/A   Clear
10:50 PM 55.4 °F - 30.2 °F 38% 30.15 in 10.0 mi WNW 4.6 mph - N/A   Clear
11:10 PM 55.4 °F - 28.4 °F 36% 30.15 in 10.0 mi NW 9.2 mph - N/A   Clear
11:30 PM 53.6 °F - 30.2 °F 41% 30.14 in 10.0 mi NW 9.2 mph - N/A   Clear
11:50 PM 53.6 °F - 30.2 °F 41% 30.15 in 10.0 mi WNW 5.8 mph - N/A   Clear